createdAt,value
2022-08-09T00:01:10.273Z,92.90
2022-08-09T00:04:06.132Z,92.90
2022-08-09T00:06:34.431Z,92.90
2022-08-09T00:09:07.284Z,92.70
2022-08-09T00:12:02.623Z,92.90
2022-08-09T00:14:37.793Z,93.10
2022-08-09T00:17:10.404Z,93.40
2022-08-09T00:20:02.274Z,93.70
2022-08-09T00:22:36.320Z,94.10
2022-08-09T00:25:12.602Z,94.40
2022-08-09T00:27:44.659Z,94.30
2022-08-09T00:30:26.192Z,94.00
2022-08-09T00:32:59.174Z,94.10
2022-08-09T00:35:43.546Z,94.30
2022-08-09T00:38:16.120Z,94.20
2022-08-09T00:40:53.849Z,94.20
2022-08-09T00:44:13.330Z,94.50
2022-08-09T00:46:55.515Z,94.20
2022-08-09T00:49:10.993Z,94.40
2022-08-09T00:51:56.289Z,94.60
2022-08-09T00:54:35.154Z,94.50
2022-08-09T00:57:10.619Z,94.60
2022-08-09T00:59:47.043Z,94.60
2022-08-09T01:02:29.378Z,94.90
2022-08-09T01:05:05.319Z,95.10
2022-08-09T01:08:01.160Z,95.30
2022-08-09T01:10:42.511Z,95.20
2022-08-09T01:13:53.476Z,95.40
2022-08-09T01:16:35.225Z,95.70
2022-08-09T01:19:40.147Z,95.90
2022-08-09T01:22:34.476Z,96.00
2022-08-09T01:25:24.868Z,96.00
2022-08-09T01:27:58.494Z,96.20
2022-08-09T01:30:44.759Z,96.40
2022-08-09T01:33:28.054Z,96.70
2022-08-09T01:36:04.535Z,97.60
2022-08-09T01:38:38.661Z,97.00
2022-08-09T01:41:32.808Z,97.00
2022-08-09T01:44:06.535Z,97.40
2022-08-09T01:46:42.394Z,97.80
2022-08-09T01:49:24.307Z,98.10
2022-08-09T01:52:06.983Z,98.90
2022-08-09T01:54:48.809Z,99.70
2022-08-09T01:57:53.020Z,99.80
2022-08-09T02:00:34.654Z,99.90
2022-08-09T02:03:11.357Z,99.90
2022-08-09T02:06:03.164Z,99.90
2022-08-09T02:08:58.731Z,99.90
2022-08-09T02:11:42.191Z,99.90
2022-08-09T02:14:26.506Z,99.90
2022-08-09T02:17:30.841Z,99.90
2022-08-09T02:19:51.250Z,99.90
2022-08-09T02:22:35.890Z,99.90
2022-08-09T02:25:17.099Z,99.90
2022-08-09T02:28:04.204Z,99.90
2022-08-09T02:30:46.530Z,99.90
2022-08-09T02:33:37.769Z,99.90
2022-08-09T02:36:16.905Z,99.90
2022-08-09T02:38:54.151Z,99.90
2022-08-09T02:41:34.983Z,99.90
2022-08-09T02:44:29.072Z,99.90
2022-08-09T02:47:13.803Z,99.90
2022-08-09T02:50:01.240Z,99.90
2022-08-09T02:52:56.513Z,99.90
2022-08-09T02:55:46.385Z,99.90
2022-08-09T02:58:35.661Z,99.90
2022-08-09T03:01:11.087Z,99.90
2022-08-09T03:04:17.873Z,99.90
2022-08-09T03:06:42.558Z,99.90
2022-08-09T03:09:18.033Z,99.90
2022-08-09T03:12:05.792Z,99.90
2022-08-09T03:14:42.289Z,99.90
2022-08-09T03:17:16.654Z,99.90
2022-08-09T03:20:00.099Z,99.90
2022-08-09T03:22:41.855Z,99.90
2022-08-09T03:25:26.329Z,99.90
2022-08-09T03:28:11.306Z,99.90
2022-08-09T03:30:44.056Z,99.90
2022-08-09T03:33:22.113Z,99.90
2022-08-09T03:36:13.287Z,99.90
2022-08-09T03:38:46.508Z,99.90
2022-08-09T03:41:18.686Z,99.90
2022-08-09T03:44:02.981Z,99.90
2022-08-09T03:46:40.873Z,99.90
2022-08-09T03:49:19.238Z,99.90
2022-08-09T03:52:00.084Z,99.90
2022-08-09T03:54:38.414Z,99.90
2022-08-09T03:57:20.562Z,99.90
2022-08-09T03:59:56.118Z,99.90
2022-08-09T04:02:33.642Z,99.90
2022-08-09T04:05:17.117Z,99.90
2022-08-09T04:07:58.999Z,99.90
2022-08-09T04:10:30.791Z,99.90
2022-08-09T04:13:09.440Z,99.90
2022-08-09T04:16:19.474Z,99.90
2022-08-09T04:18:36.817Z,99.90
2022-08-09T04:21:10.879Z,99.90
2022-08-09T04:23:53.922Z,99.90
2022-08-09T04:26:35.302Z,99.90
2022-08-09T04:29:15.462Z,99.90
2022-08-09T04:31:47.750Z,99.90
2022-08-09T04:34:30.661Z,99.90
2022-08-09T04:37:03.982Z,99.90
2022-08-09T04:39:40.547Z,99.90
2022-08-09T04:42:15.936Z,99.90
2022-08-09T04:44:50.442Z,99.90
2022-08-09T04:47:26.659Z,99.90
2022-08-09T04:50:17.077Z,99.90
2022-08-09T04:52:51.546Z,99.90
2022-08-09T04:55:23.271Z,99.90
2022-08-09T04:58:01.694Z,99.90
2022-08-09T05:00:41.626Z,99.90
2022-08-09T05:03:40.209Z,99.90
2022-08-09T05:06:07.484Z,99.90
2022-08-09T05:08:39.506Z,99.90
2022-08-09T05:11:16.071Z,99.90
2022-08-09T05:13:48.569Z,99.90
2022-08-09T05:16:20.520Z,99.90
2022-08-09T05:19:03.585Z,99.90
2022-08-09T05:21:47.014Z,99.90
2022-08-09T05:24:24.897Z,99.90
2022-08-09T05:26:56.819Z,99.90
2022-08-09T05:29:31.510Z,99.90
2022-08-09T05:32:07.468Z,99.90
2022-08-09T05:34:45.653Z,99.90
2022-08-09T05:37:18.320Z,99.90
2022-08-09T05:39:50.263Z,99.90
2022-08-09T05:42:27.905Z,99.90
2022-08-09T05:45:01.382Z,99.90
2022-08-09T05:47:33.616Z,99.90
2022-08-09T05:50:25.157Z,99.90
2022-08-09T05:52:57.623Z,99.90
2022-08-09T05:55:31.339Z,99.90
2022-08-09T05:58:04.178Z,99.90
2022-08-09T06:00:39.066Z,99.90
2022-08-09T06:03:11.090Z,99.90
2022-08-09T06:06:04.680Z,99.90
2022-08-09T06:08:37.990Z,99.90
2022-08-09T06:11:16.855Z,99.90
2022-08-09T06:13:49.573Z,99.90
2022-08-09T06:16:23.338Z,99.90
2022-08-09T06:18:55.534Z,99.90
2022-08-09T06:21:27.435Z,99.90
2022-08-09T06:24:01.372Z,99.90
2022-08-09T06:26:34.408Z,99.90
2022-08-09T06:29:06.510Z,99.90
2022-08-09T06:31:40.187Z,99.90
2022-08-09T06:34:30.796Z,99.90
2022-08-09T06:37:02.703Z,99.90
2022-08-09T06:39:48.775Z,99.90
2022-08-09T06:42:30.544Z,99.90
2022-08-09T06:46:04.241Z,99.90
2022-08-09T06:47:58.045Z,99.90
2022-08-09T06:50:32.842Z,99.90
2022-08-09T06:53:04.897Z,99.90
2022-08-09T06:55:36.646Z,99.90
2022-08-09T06:58:28.478Z,99.90
2022-08-09T07:01:01.274Z,99.90
2022-08-09T07:03:39.346Z,99.90
2022-08-09T07:06:25.426Z,99.90
2022-08-09T07:08:57.358Z,99.90
2022-08-09T07:11:45.719Z,99.90
2022-08-09T07:14:26.665Z,99.90
2022-08-09T07:16:59.105Z,99.90
2022-08-09T07:19:30.891Z,99.90
2022-08-09T07:22:02.802Z,99.90
2022-08-09T07:24:40.281Z,99.90
2022-08-09T07:27:33.595Z,99.90
2022-08-09T07:30:06.953Z,99.90
2022-08-09T07:32:39.912Z,99.90
2022-08-09T07:35:14.850Z,99.90
2022-08-09T07:37:49.183Z,99.90
2022-08-09T07:40:26.821Z,99.90
2022-08-09T07:43:00.370Z,99.90
2022-08-09T07:45:38.169Z,99.90
2022-08-09T07:48:25.786Z,99.90
2022-08-09T07:51:09.015Z,99.90
2022-08-09T07:54:06.796Z,99.90
2022-08-09T07:56:49.811Z,99.90
2022-08-09T07:59:34.810Z,99.90
2022-08-09T08:02:19.401Z,99.90
2022-08-09T08:04:53.702Z,99.80
2022-08-09T08:08:44.321Z,99.90
2022-08-09T08:10:18.803Z,99.70
2022-08-09T08:12:50.583Z,99.40
2022-08-09T08:15:23.125Z,98.90
2022-08-09T08:17:58.663Z,98.60
2022-08-09T08:20:32.749Z,98.60
2022-08-09T08:23:16.394Z,97.80
2022-08-09T08:25:50.154Z,97.50
2022-08-09T08:28:38.066Z,96.90
2022-08-09T08:31:14.945Z,96.90
2022-08-09T08:33:53.882Z,96.80
2022-08-09T08:36:28.790Z,97.30
2022-08-09T08:39:02.233Z,96.70
2022-08-09T08:41:42.076Z,95.70
2022-08-09T08:44:28.966Z,95.70
2022-08-09T08:47:05.233Z,95.40
2022-08-09T08:49:48.038Z,95.50
2022-08-09T08:52:58.547Z,94.40
2022-08-09T08:55:23.479Z,94.80
2022-08-09T08:57:58.325Z,94.10
2022-08-09T09:00:34.781Z,94.30
2022-08-09T09:03:08.854Z,93.80
2022-08-09T09:06:00.680Z,92.80
2022-08-09T09:08:40.782Z,92.20
2022-08-09T09:11:17.676Z,91.00
2022-08-09T09:13:58.499Z,88.10
2022-08-09T09:16:34.400Z,84.20
2022-08-09T09:22:07.640Z,78.50
2022-08-09T09:24:45.708Z,76.40
2022-08-09T09:28:04.273Z,74.20
2022-08-09T09:30:27.392Z,71.30
2022-08-09T09:33:16.984Z,70.80
2022-08-09T09:36:11.713Z,70.80
2022-08-09T09:38:58.117Z,68.00
2022-08-09T09:41:33.076Z,67.10
2022-08-09T09:44:15.617Z,75.70
2022-08-09T09:47:21.343Z,77.70
2022-08-09T09:50:14.429Z,72.30
2022-08-09T09:52:53.909Z,71.70
2022-08-09T09:55:32.351Z,70.20
2022-08-09T09:58:18.800Z,69.00
2022-08-09T10:00:58.878Z,70.10
2022-08-09T10:03:57.216Z,66.90
2022-08-09T10:06:42.739Z,65.70
2022-08-09T10:09:22.592Z,64.10
2022-08-09T10:12:14.635Z,62.80
2022-08-09T10:15:17.494Z,62.80
2022-08-09T10:18:11.678Z,60.90
2022-08-09T10:20:44.906Z,59.60
2022-08-09T10:23:21.214Z,59.30
2022-08-09T10:26:07.417Z,59.70
2022-08-09T10:28:49.021Z,61.70
2022-08-09T10:34:33.810Z,58.20
2022-08-09T10:37:09.766Z,57.40
2022-08-09T10:39:48.898Z,58.90
2022-08-09T10:42:27.179Z,59.10
2022-08-09T10:45:12.094Z,58.10
2022-08-09T10:48:26.545Z,57.80
2022-08-09T10:51:21.191Z,57.70
2022-08-09T10:54:12.383Z,56.30
2022-08-09T10:56:45.090Z,56.80
2022-08-09T10:59:23.323Z,57.60
2022-08-09T11:03:15.302Z,58.00
2022-08-09T11:05:24.860Z,58.10
2022-08-09T11:08:47.974Z,57.00
2022-08-09T11:11:25.057Z,54.60
2022-08-09T11:14:35.386Z,54.80
2022-08-09T11:17:19.330Z,55.20
2022-08-09T11:20:10.125Z,55.50
2022-08-09T11:22:55.386Z,55.20
2022-08-09T11:25:44.533Z,56.50
2022-08-09T11:28:53.940Z,55.20
2022-08-09T11:31:49.681Z,55.20
2022-08-09T11:34:42.766Z,56.40
2022-08-09T11:37:31.206Z,58.00
2022-08-09T11:40:17.839Z,59.40
2022-08-09T11:42:55.303Z,61.60
2022-08-09T11:45:42.646Z,62.80
2022-08-09T11:48:25.339Z,60.80
2022-08-09T11:52:49.207Z,61.70
2022-08-09T11:54:27.971Z,62.00
2022-08-09T11:57:59.929Z,62.00
2022-08-09T12:00:32.978Z,62.20
2022-08-09T12:03:55.142Z,61.00
2022-08-09T12:06:13.027Z,62.50
2022-08-09T12:08:52.988Z,62.00
2022-08-09T12:11:27.672Z,61.20
2022-08-09T12:14:36.722Z,60.60
2022-08-09T12:16:59.860Z,59.60
2022-08-09T12:19:32.771Z,59.90
2022-08-09T12:22:07.783Z,60.60
2022-08-09T12:24:42.210Z,60.20
2022-08-09T12:29:14.069Z,64.40
2022-08-09T12:30:36.120Z,60.80
2022-08-09T12:33:05.818Z,60.90
2022-08-09T12:35:41.078Z,61.00
2022-08-09T12:38:37.875Z,60.70
2022-08-09T12:41:10.688Z,60.10
2022-08-09T12:44:04.404Z,60.90
2022-08-09T12:46:36.882Z,59.90
2022-08-09T12:49:09.157Z,60.00
2022-08-09T12:52:00.729Z,59.30
2022-08-09T12:56:10.831Z,59.20
2022-08-09T12:57:46.996Z,59.10
2022-08-09T13:00:34.511Z,61.20
2022-08-09T13:03:06.480Z,60.20
2022-08-09T13:06:14.286Z,61.20
2022-08-09T13:09:20.249Z,61.10
2022-08-09T13:12:01.844Z,61.60
2022-08-09T13:14:41.065Z,62.10
2022-08-09T13:17:44.518Z,62.60
2022-08-09T13:20:18.966Z,62.60
2022-08-09T13:23:05.992Z,60.90
2022-08-09T13:25:54.357Z,61.30
2022-08-09T13:28:34.287Z,61.10
2022-08-09T13:32:17.842Z,60.40
2022-08-09T13:34:03.575Z,61.50
2022-08-09T13:36:40.991Z,62.00
2022-08-09T13:41:20.893Z,62.80
2022-08-09T13:42:17.915Z,62.00
2022-08-09T13:44:50.122Z,62.30
2022-08-09T13:47:31.051Z,60.80
2022-08-09T13:50:18.159Z,61.10
2022-08-09T13:53:01.635Z,63.00
2022-08-09T13:55:35.319Z,62.70
2022-08-09T13:58:11.643Z,63.50
2022-08-09T14:00:49.813Z,61.10
2022-08-09T14:04:02.307Z,60.80
2022-08-09T14:06:25.745Z,60.00
2022-08-09T14:08:58.575Z,59.00
2022-08-09T14:11:30.347Z,58.00
2022-08-09T14:14:23.158Z,58.60
2022-08-09T14:16:54.481Z,59.10
2022-08-09T14:19:26.505Z,57.90
2022-08-09T14:22:05.339Z,58.30
2022-08-09T14:24:37.089Z,59.40
2022-08-09T14:27:20.471Z,58.80
2022-08-09T14:30:37.434Z,59.80
2022-08-09T14:32:44.320Z,59.20
2022-08-09T14:35:16.218Z,59.50
2022-08-09T14:38:01.840Z,58.70
2022-08-09T14:41:00.530Z,58.40
2022-08-09T14:43:26.124Z,58.70
2022-08-09T14:46:56.091Z,58.80
2022-08-09T14:49:10.501Z,59.50
2022-08-09T14:51:42.792Z,58.00
2022-08-09T14:54:16.722Z,58.80
2022-08-09T14:56:59.015Z,58.20
2022-08-09T14:59:31.120Z,58.20
2022-08-09T15:02:02.899Z,59.00
2022-08-09T15:04:34.685Z,58.80
2022-08-09T15:07:10.028Z,58.90
2022-08-09T15:10:07.336Z,58.90
2022-08-09T15:12:34.588Z,58.60
2022-08-09T15:15:08.627Z,58.70
2022-08-09T15:17:41.822Z,58.50
2022-08-09T15:20:15.419Z,58.70
2022-08-09T15:24:03.689Z,58.40
2022-08-09T15:25:58.945Z,59.20
2022-08-09T15:28:33.417Z,59.40
2022-08-09T15:31:13.233Z,58.80
2022-08-09T15:34:18.162Z,58.80
2022-08-09T15:36:40.667Z,59.50
2022-08-09T15:39:20.594Z,66.30
2022-08-09T15:41:52.491Z,68.20
2022-08-09T15:44:26.066Z,61.40
2022-08-09T15:47:05.272Z,59.90
2022-08-09T15:49:37.087Z,59.50
2022-08-09T15:52:09.198Z,59.40
2022-08-09T15:54:49.209Z,59.30
2022-08-09T15:57:35.662Z,58.90
2022-08-09T16:00:25.625Z,59.30
2022-08-09T16:02:58.692Z,59.20
2022-08-09T16:05:47.684Z,59.40
2022-08-09T16:08:29.529Z,60.70
2022-08-09T16:11:03.759Z,59.60
2022-08-09T16:14:04.216Z,58.90
2022-08-09T16:16:31.277Z,60.10
2022-08-09T16:19:03.603Z,60.70
2022-08-09T16:21:36.732Z,60.60
2022-08-09T16:24:20.093Z,59.50
2022-08-09T16:27:05.299Z,58.30
2022-08-09T16:29:49.967Z,59.30
2022-08-09T16:32:35.118Z,59.20
2022-08-09T16:35:07.487Z,58.20
2022-08-09T16:37:54.838Z,58.40
2022-08-09T16:40:39.815Z,58.30
2022-08-09T16:43:12.565Z,58.60
2022-08-09T16:45:46.207Z,58.50
2022-08-09T16:48:41.092Z,58.90
2022-08-09T16:51:14.141Z,58.50
2022-08-09T16:54:22.428Z,58.40
2022-08-09T16:56:49.231Z,59.60
2022-08-09T16:59:21.343Z,59.80
2022-08-09T17:01:53.289Z,59.40
2022-08-09T17:04:28.063Z,59.90
2022-08-09T17:08:40.908Z,59.20
2022-08-09T17:09:52.063Z,59.30
2022-08-09T17:12:34.108Z,59.80
2022-08-09T17:15:17.989Z,59.50
2022-08-09T17:18:00.762Z,60.40
2022-08-09T17:20:38.866Z,60.90
2022-08-09T17:23:14.922Z,60.30
2022-08-09T17:25:52.792Z,61.20
2022-08-09T17:28:25.102Z,61.40
2022-08-09T17:30:58.753Z,60.70
2022-08-09T17:33:35.792Z,61.60
2022-08-09T17:36:11.025Z,61.40
2022-08-09T17:38:57.454Z,61.20
2022-08-09T17:41:38.813Z,61.20
2022-08-09T17:44:41.812Z,61.20
2022-08-09T17:47:05.979Z,61.20
2022-08-09T17:49:51.267Z,61.70
2022-08-09T17:52:34.070Z,63.30
2022-08-09T17:55:06.583Z,63.10
2022-08-09T17:58:02.899Z,62.60
2022-08-09T18:00:33.493Z,65.10
2022-08-09T18:03:18.612Z,65.50
2022-08-09T18:05:53.351Z,65.80
2022-08-09T18:08:27.459Z,65.70
2022-08-09T18:11:01.846Z,68.70
2022-08-09T18:13:53.717Z,70.90
2022-08-09T18:16:30.273Z,70.00
2022-08-09T18:19:04.241Z,67.70
2022-08-09T18:21:54.756Z,70.10
2022-08-09T18:24:27.691Z,73.10
2022-08-09T18:27:01.055Z,72.30
2022-08-09T18:30:40.887Z,74.30
2022-08-09T18:32:24.935Z,76.00
2022-08-09T18:34:58.563Z,75.00
2022-08-09T18:37:48.173Z,75.60
2022-08-09T18:40:26.897Z,77.40
2022-08-09T18:42:58.939Z,77.70
2022-08-09T18:46:46.542Z,77.50
2022-08-09T18:48:30.113Z,79.10
2022-08-09T18:51:04.654Z,79.00
2022-08-09T18:53:41.462Z,79.20
2022-08-09T18:56:29.523Z,78.70
2022-08-09T18:59:01.796Z,79.80
2022-08-09T19:01:43.557Z,80.50
2022-08-09T19:04:18.110Z,80.30
2022-08-09T19:07:06.656Z,80.60
2022-08-09T19:10:15.691Z,80.10
2022-08-09T19:12:31.893Z,80.70
2022-08-09T19:15:08.788Z,79.60
2022-08-09T19:17:54.929Z,80.80
2022-08-09T19:20:34.260Z,81.50
2022-08-09T19:23:16.687Z,81.70
2022-08-09T19:26:04.611Z,82.40
2022-08-09T19:28:38.229Z,82.20
2022-08-09T19:31:14.529Z,82.30
2022-08-09T19:33:48.544Z,81.40
2022-08-09T19:36:23.207Z,81.30
2022-08-09T19:39:03.589Z,82.00
2022-08-09T19:41:37.402Z,81.40
2022-08-09T19:44:14.224Z,80.10
2022-08-09T19:46:50.963Z,80.40
2022-08-09T19:50:07.864Z,79.20
2022-08-09T19:52:18.225Z,81.50
2022-08-09T19:54:50.110Z,81.10
2022-08-09T19:57:25.723Z,81.80
2022-08-09T20:00:06.385Z,81.60
2022-08-09T20:04:11.318Z,80.20
2022-08-09T20:05:46.042Z,81.90
2022-08-09T20:08:33.294Z,82.20
2022-08-09T20:11:06.571Z,81.40
2022-08-09T20:13:38.754Z,81.20
2022-08-09T20:16:35.050Z,82.50
2022-08-09T20:19:42.516Z,83.70
2022-08-09T20:21:57.503Z,83.40
2022-08-09T20:24:34.230Z,84.10
2022-08-09T20:27:08.423Z,84.40
2022-08-09T20:29:40.662Z,85.60
2022-08-09T20:32:31.081Z,84.80
2022-08-09T20:35:06.531Z,84.50
2022-08-09T20:38:22.043Z,84.30
2022-08-09T20:40:30.738Z,85.90
2022-08-09T20:43:18.135Z,85.90
2022-08-09T20:46:00.038Z,84.90
2022-08-09T20:48:46.167Z,86.20
2022-08-09T20:51:25.817Z,86.30
2022-08-09T20:53:57.622Z,87.50
2022-08-09T20:56:29.352Z,87.50
2022-08-09T20:59:02.777Z,88.90
2022-08-09T21:01:51.542Z,89.10
2022-08-09T21:05:49.737Z,89.00
2022-08-09T21:07:17.298Z,89.40
2022-08-09T21:09:56.820Z,90.00
2022-08-09T21:15:34.214Z,90.20
2022-08-09T21:18:22.454Z,90.30
2022-08-09T21:20:57.699Z,90.40
2022-08-09T21:23:47.849Z,90.50
2022-08-09T21:26:22.216Z,90.70
2022-08-09T21:28:57.097Z,90.60
2022-08-09T21:31:49.059Z,90.70
2022-08-09T21:34:29.232Z,90.60
2022-08-09T21:37:01.531Z,90.60
2022-08-09T21:39:41.792Z,90.90
2022-08-09T21:42:14.411Z,90.90
2022-08-09T21:44:46.501Z,91.40
2022-08-09T21:47:20.161Z,91.10
2022-08-09T21:49:52.245Z,91.40
2022-08-09T21:52:24.059Z,91.20
2022-08-09T21:55:03.357Z,91.40
2022-08-09T21:57:59.421Z,90.80
2022-08-09T22:00:32.330Z,91.30
2022-08-09T22:03:19.205Z,91.50
2022-08-09T22:05:51.808Z,91.50
2022-08-09T22:08:26.998Z,91.50
2022-08-09T22:11:00.276Z,91.30
2022-08-09T22:13:50.453Z,91.20
2022-08-09T22:16:23.057Z,91.50
2022-08-09T22:18:55.823Z,91.70
2022-08-09T22:21:45.139Z,91.30
2022-08-09T22:24:24.780Z,91.00
2022-08-09T22:26:56.842Z,91.40
2022-08-09T22:29:34.461Z,91.50
2022-08-09T22:32:29.700Z,91.30
2022-08-09T22:35:06.445Z,91.70
2022-08-09T22:37:40.319Z,91.70
2022-08-09T22:40:18.157Z,91.90
2022-08-09T22:42:52.022Z,91.90
2022-08-09T22:48:10.961Z,92.00
2022-08-09T22:48:35.389Z,92.50
2022-08-09T22:51:10.707Z,92.70
2022-08-09T22:54:02.953Z,92.90
2022-08-09T22:56:35.229Z,93.20
2022-08-09T22:59:55.675Z,93.40
2022-08-09T23:01:59.585Z,93.10
2022-08-09T23:04:32.828Z,93.40
2022-08-09T23:08:23.173Z,93.70
2022-08-09T23:10:15.086Z,93.70
2022-08-09T23:12:47.378Z,93.80
2022-08-09T23:15:19.123Z,93.80
2022-08-09T23:17:50.938Z,93.90
2022-08-09T23:20:23.833Z,94.20
2022-08-09T23:22:55.740Z,94.40
2022-08-09T23:25:27.627Z,94.40
2022-08-09T23:28:14.643Z,94.50
2022-08-09T23:30:51.249Z,94.60
2022-08-09T23:33:24.287Z,94.50
2022-08-09T23:36:06.603Z,94.60
2022-08-09T23:38:48.492Z,94.80
2022-08-09T23:41:28.953Z,95.00
2022-08-09T23:44:02.493Z,95.20
2022-08-09T23:46:34.556Z,95.30
2022-08-09T23:49:06.398Z,95.40
2022-08-09T23:51:38.159Z,95.50
2022-08-09T23:54:10.058Z,95.70
2022-08-09T23:56:54.058Z,95.80
2022-08-09T23:59:47.098Z,96.20
